createdAt,value
2018-08-28T00:02:42.980Z,11.75
2018-08-28T00:05:45.297Z,11.77
2018-08-28T00:08:47.693Z,11.76
2018-08-28T00:11:50.043Z,11.67
2018-08-28T00:14:52.340Z,11.58
2018-08-28T00:17:54.696Z,11.67
2018-08-28T00:20:56.978Z,11.61
2018-08-28T00:23:59.160Z,11.53
2018-08-28T00:27:01.437Z,11.52
2018-08-28T00:30:03.802Z,11.48
2018-08-28T00:33:07.583Z,11.33
2018-08-28T00:36:09.847Z,11.26
2018-08-28T00:39:12.025Z,11.26
2018-08-28T00:42:14.239Z,11.31
2018-08-28T00:45:16.479Z,11.40
2018-08-28T00:48:18.687Z,11.53
2018-08-28T00:51:20.896Z,11.62
2018-08-28T00:54:23.307Z,11.69
2018-08-28T00:57:25.555Z,11.71
2018-08-28T01:00:27.811Z,11.61
2018-08-28T01:03:29.983Z,11.55
2018-08-28T01:06:32.156Z,11.55
2018-08-28T01:09:34.330Z,11.52
2018-08-28T01:12:36.568Z,11.56
2018-08-28T01:15:38.770Z,11.58
2018-08-28T01:18:41.114Z,11.51
2018-08-28T01:21:43.403Z,11.40
2018-08-28T01:24:45.576Z,11.42
2018-08-28T01:27:47.756Z,11.40
2018-08-28T01:30:49.890Z,11.41
2018-08-28T01:33:53.744Z,11.43
2018-08-28T01:36:56.135Z,11.44
2018-08-28T01:40:00.574Z,11.35
2018-08-28T01:43:07.506Z,11.22
2018-08-28T01:46:09.715Z,11.19
2018-08-28T01:49:11.938Z,11.22
2018-08-28T01:52:14.108Z,11.31
2018-08-28T01:55:16.316Z,11.44
2018-08-28T01:58:18.481Z,11.53
2018-08-28T02:01:20.760Z,11.70
2018-08-28T02:04:23.031Z,11.58
2018-08-28T02:07:25.384Z,11.47
2018-08-28T02:10:28.223Z,11.51
2018-08-28T02:13:30.450Z,11.64
2018-08-28T02:16:32.693Z,11.65
2018-08-28T02:19:34.833Z,11.71
2018-08-28T02:22:37.057Z,11.80
2018-08-28T02:25:39.329Z,11.92
2018-08-28T02:28:41.576Z,12.08
2018-08-28T02:31:43.884Z,12.11
2018-08-28T02:34:46.132Z,12.20
2018-08-28T02:37:48.299Z,12.22
2018-08-28T02:40:50.451Z,12.20
2018-08-28T02:43:52.646Z,12.23
2018-08-28T02:46:54.861Z,12.00
2018-08-28T02:49:57.037Z,12.00
2018-08-28T02:52:59.271Z,11.95
2018-08-28T02:56:01.652Z,11.99
2018-08-28T02:59:03.828Z,12.05
2018-08-28T03:02:06.047Z,12.10
2018-08-28T03:05:08.217Z,12.12
2018-08-28T03:08:10.467Z,12.15
2018-08-28T03:11:12.726Z,12.13
2018-08-28T03:14:14.997Z,12.08
2018-08-28T03:17:17.460Z,12.05
2018-08-28T03:20:19.716Z,12.01
2018-08-28T03:23:21.996Z,12.04
2018-08-28T03:26:24.265Z,11.97
2018-08-28T03:29:26.523Z,11.95
2018-08-28T03:32:29.133Z,11.93
2018-08-28T03:35:31.350Z,11.90
2018-08-28T03:38:34.560Z,11.92
2018-08-28T03:41:36.866Z,11.98
2018-08-28T03:44:39.173Z,12.08
2018-08-28T03:47:41.350Z,12.17
2018-08-28T03:50:43.469Z,12.27
2018-08-28T03:53:45.723Z,12.34
2018-08-28T03:56:47.960Z,12.39
2018-08-28T03:59:50.198Z,12.40
2018-08-28T04:02:52.417Z,12.45
2018-08-28T04:05:54.559Z,12.35
2018-08-28T04:08:56.809Z,12.37
2018-08-28T04:11:59.013Z,12.36
2018-08-28T04:15:01.191Z,12.40
2018-08-28T04:18:03.466Z,12.43
2018-08-28T04:21:05.753Z,12.37
2018-08-28T04:24:07.960Z,12.38
2018-08-28T04:27:10.276Z,12.30
2018-08-28T04:30:12.512Z,12.22
2018-08-28T04:33:14.728Z,12.12
2018-08-28T04:36:17.042Z,12.02
2018-08-28T04:39:19.189Z,11.96
2018-08-28T04:42:21.465Z,11.89
2018-08-28T04:45:23.756Z,11.81
2018-08-28T04:48:26.114Z,11.75
2018-08-28T04:51:28.307Z,11.71
2018-08-28T04:54:30.539Z,11.71
2018-08-28T04:57:32.707Z,11.73
2018-08-28T05:00:34.959Z,11.72
2018-08-28T05:03:37.106Z,11.76
2018-08-28T05:06:39.296Z,11.81
2018-08-28T05:09:41.583Z,12.01
2018-08-28T05:12:43.833Z,12.94
2018-08-28T05:15:46.076Z,13.85
2018-08-28T05:18:48.291Z,14.51
2018-08-28T05:21:50.539Z,14.97
2018-08-28T05:24:52.911Z,15.58
2018-08-28T05:27:55.119Z,16.08
2018-08-28T05:30:57.295Z,16.59
2018-08-28T05:33:59.677Z,17.25
2018-08-28T05:37:02.153Z,17.71
2018-08-28T05:40:04.428Z,18.28
2018-08-28T05:43:06.562Z,18.71
2018-08-28T05:46:08.782Z,19.03
2018-08-28T05:49:11.001Z,19.52
2018-08-28T05:52:13.120Z,19.79
2018-08-28T05:55:15.335Z,20.06
2018-08-28T05:58:17.550Z,20.28
2018-08-28T06:01:19.881Z,20.81
2018-08-28T06:04:22.138Z,21.37
2018-08-28T06:07:24.366Z,21.86
2018-08-28T06:10:26.642Z,22.30
2018-08-28T06:13:28.865Z,22.27
2018-08-28T06:16:31.060Z,22.36
2018-08-28T06:19:33.377Z,22.56
2018-08-28T06:22:35.625Z,22.39
2018-08-28T06:25:38.035Z,22.37
2018-08-28T06:28:40.334Z,22.81
2018-08-28T06:31:42.499Z,23.05
2018-08-28T06:34:44.725Z,23.33
2018-08-28T06:37:46.985Z,23.58
2018-08-28T06:40:49.244Z,23.53
2018-08-28T06:43:51.536Z,24.41
2018-08-28T06:46:53.649Z,24.46
2018-08-28T06:49:56.000Z,22.75
2018-08-28T06:52:58.267Z,23.97
2018-08-28T06:56:00.504Z,24.32
2018-08-28T06:59:02.805Z,24.62
2018-08-28T07:02:05.405Z,24.09
2018-08-28T07:05:07.820Z,23.73
2018-08-28T07:08:10.031Z,22.59
2018-08-28T07:11:12.185Z,24.11
2018-08-28T07:14:14.418Z,24.29
2018-08-28T07:17:16.592Z,23.98
2018-08-28T07:20:18.832Z,24.31
2018-08-28T07:23:21.034Z,24.65
2018-08-28T07:26:23.332Z,24.06
2018-08-28T07:29:25.545Z,23.22
2018-08-28T07:32:27.826Z,22.71
2018-08-28T07:35:30.007Z,22.54
2018-08-28T07:38:32.397Z,22.77
2018-08-28T07:41:34.573Z,22.18
2018-08-28T07:44:36.824Z,21.99
2018-08-28T07:47:38.983Z,22.45
2018-08-28T07:50:41.245Z,22.24
2018-08-28T07:53:43.497Z,21.81
2018-08-28T07:56:45.789Z,21.48
2018-08-28T07:59:47.960Z,21.20
2018-08-28T08:02:50.091Z,21.27
2018-08-28T08:05:53.805Z,20.17
2018-08-28T08:08:55.925Z,19.99
2018-08-28T08:11:58.089Z,20.45
2018-08-28T08:15:00.251Z,21.00
2018-08-28T08:18:02.503Z,21.78
2018-08-28T08:21:04.849Z,22.32
2018-08-28T08:24:07.127Z,22.32
2018-08-28T08:27:09.321Z,21.42
2018-08-28T08:30:11.584Z,21.43
2018-08-28T08:33:13.828Z,21.33
2018-08-28T08:36:15.928Z,21.73
2018-08-28T08:39:18.103Z,22.00
2018-08-28T08:42:20.287Z,21.42
2018-08-28T08:45:22.444Z,21.23
2018-08-28T08:48:24.649Z,21.59
2018-08-28T08:51:26.798Z,21.41
2018-08-28T08:54:29.041Z,21.32
2018-08-28T08:57:31.311Z,21.61
2018-08-28T09:00:33.405Z,21.74
2018-08-28T09:03:35.548Z,22.31
2018-08-28T09:06:37.777Z,22.75
2018-08-28T09:09:40.051Z,22.85
2018-08-28T09:12:42.325Z,23.09
2018-08-28T09:15:44.625Z,23.36
2018-08-28T09:18:46.879Z,23.17
2018-08-28T09:21:49.157Z,23.26
2018-08-28T09:24:51.563Z,24.23
2018-08-28T09:27:53.913Z,24.70
2018-08-28T09:30:56.172Z,24.68
2018-08-28T09:33:58.448Z,25.08
2018-08-28T09:37:00.733Z,25.26
2018-08-28T09:40:02.999Z,24.69
2018-08-28T09:43:05.734Z,24.39
2018-08-28T09:46:07.935Z,24.18
2018-08-28T09:49:11.271Z,24.02
2018-08-28T09:52:13.795Z,24.63
2018-08-28T09:55:15.909Z,24.88
2018-08-28T09:58:18.100Z,24.94
2018-08-28T10:01:26.897Z,24.51
2018-08-28T10:04:29.108Z,24.04
2018-08-28T10:07:31.326Z,24.16
2018-08-28T10:10:33.635Z,24.52
2018-08-28T10:13:35.898Z,24.04
2018-08-28T10:16:38.205Z,23.43
2018-08-28T10:19:40.523Z,23.88
2018-08-28T10:22:42.793Z,23.87
2018-08-28T10:25:44.905Z,22.80
2018-08-28T10:28:47.160Z,23.54
2018-08-28T10:31:49.341Z,23.69
2018-08-28T10:34:51.609Z,23.53
2018-08-28T10:37:53.805Z,24.02
2018-08-28T10:40:56.012Z,24.69
2018-08-28T10:43:58.353Z,25.29
2018-08-28T10:47:00.548Z,25.49
2018-08-28T10:50:02.864Z,23.57
2018-08-28T10:53:05.115Z,23.38
2018-08-28T10:56:07.366Z,23.97
2018-08-28T10:59:09.588Z,24.20
2018-08-28T11:02:11.804Z,23.60
2018-08-28T11:05:14.106Z,24.95
2018-08-28T11:08:16.375Z,25.23
2018-08-28T11:11:18.602Z,25.61
2018-08-28T11:14:20.993Z,25.46
2018-08-28T11:17:23.480Z,24.83
2018-08-28T11:20:25.800Z,24.71
2018-08-28T11:23:28.022Z,24.16
2018-08-28T11:26:31.960Z,23.86
2018-08-28T11:29:34.266Z,23.73
2018-08-28T11:32:36.526Z,24.08
2018-08-28T11:35:38.780Z,24.04
2018-08-28T11:38:40.997Z,23.72
2018-08-28T11:41:43.264Z,24.11
2018-08-28T11:44:45.406Z,24.11
2018-08-28T11:47:47.537Z,23.52
2018-08-28T11:50:49.787Z,23.97
2018-08-28T11:53:52.069Z,24.46
2018-08-28T11:56:54.301Z,24.69
2018-08-28T11:59:56.543Z,24.50
2018-08-28T12:02:58.681Z,24.99
2018-08-28T12:06:00.859Z,25.09
2018-08-28T12:09:04.310Z,24.98
2018-08-28T12:12:06.489Z,24.35
2018-08-28T12:15:08.687Z,24.13
2018-08-28T12:18:11.027Z,23.81
2018-08-28T12:21:13.648Z,23.57
2018-08-28T12:24:15.951Z,23.04
2018-08-28T12:27:28.600Z,24.11
2018-08-28T12:30:32.740Z,24.73
2018-08-28T12:33:35.050Z,24.51
2018-08-28T12:36:37.295Z,23.84
2018-08-28T12:39:39.546Z,23.48
2018-08-28T12:42:41.857Z,23.72
2018-08-28T12:45:44.136Z,24.64
2018-08-28T12:48:46.410Z,24.89
2018-08-28T12:51:48.625Z,24.69
2018-08-28T12:54:50.895Z,25.09
2018-08-28T12:57:52.969Z,24.99
2018-08-28T13:00:55.263Z,25.34
2018-08-28T13:03:58.583Z,25.88
2018-08-28T13:07:01.577Z,26.30
2018-08-28T13:10:03.895Z,26.51
2018-08-28T13:13:06.167Z,26.56
2018-08-28T13:16:08.427Z,26.76
2018-08-28T13:19:10.677Z,26.83
2018-08-28T13:22:12.835Z,26.65
2018-08-28T13:25:15.036Z,26.87
2018-08-28T13:28:17.222Z,26.71
2018-08-28T13:31:20.400Z,26.29
2018-08-28T13:34:22.568Z,25.59
2018-08-28T13:37:24.872Z,25.77
2018-08-28T13:40:27.281Z,26.00
2018-08-28T13:43:29.417Z,26.38
2018-08-28T13:46:31.824Z,26.49
2018-08-28T13:49:34.026Z,26.91
2018-08-28T13:52:36.234Z,27.26
2018-08-28T13:55:38.519Z,26.91
2018-08-28T13:58:40.684Z,25.92
2018-08-28T14:01:42.817Z,26.57
2018-08-28T14:04:44.964Z,27.02
2018-08-28T14:07:47.123Z,26.41
2018-08-28T14:10:49.438Z,26.60
2018-08-28T14:13:51.802Z,27.34
2018-08-28T14:16:54.001Z,27.95
2018-08-28T14:19:56.286Z,28.16
2018-08-28T14:22:58.558Z,27.79
2018-08-28T14:26:00.805Z,28.31
2018-08-28T14:29:03.120Z,29.21
2018-08-28T14:32:05.463Z,28.89
2018-08-28T14:35:07.772Z,28.80
2018-08-28T14:38:09.977Z,29.29
2018-08-28T14:41:12.661Z,29.36
2018-08-28T14:44:14.803Z,29.25
2018-08-28T14:47:17.020Z,28.92
2018-08-28T14:50:19.423Z,28.94
2018-08-28T14:53:21.593Z,29.27
2018-08-28T14:56:24.908Z,29.52
2018-08-28T14:59:27.143Z,28.63
2018-08-28T15:02:32.262Z,28.00
2018-08-28T15:05:34.534Z,27.82
2018-08-28T15:08:39.999Z,28.53
2018-08-28T15:11:42.329Z,29.12
2018-08-28T15:14:45.330Z,29.37
2018-08-28T15:17:47.604Z,29.30
2018-08-28T15:20:49.945Z,28.73
2018-08-28T15:23:52.067Z,28.69
2018-08-28T15:26:55.288Z,28.65
2018-08-28T15:29:57.506Z,28.51
2018-08-28T15:32:59.861Z,28.79
2018-08-28T15:36:03.029Z,29.39
2018-08-28T15:39:05.572Z,28.90
2018-08-28T15:42:07.780Z,28.49
2018-08-28T15:45:10.024Z,28.26
2018-08-28T15:48:12.253Z,28.10
2018-08-28T15:52:17.873Z,28.35
2018-08-28T15:55:20.080Z,28.59
2018-08-28T15:58:22.309Z,28.44
2018-08-28T16:01:25.005Z,28.47
2018-08-28T16:04:27.382Z,28.47
2018-08-28T16:07:29.686Z,28.73
2018-08-28T16:10:31.832Z,28.57
2018-08-28T16:13:34.040Z,28.48
2018-08-28T16:16:36.301Z,27.43
2018-08-28T16:19:38.457Z,27.66
2018-08-28T16:22:43.659Z,27.76
2018-08-28T16:25:45.973Z,27.83
2018-08-28T16:28:48.179Z,28.17
2018-08-28T16:31:50.459Z,27.89
2018-08-28T16:34:52.652Z,27.80
2018-08-28T16:37:54.829Z,27.64
2018-08-28T16:40:57.051Z,27.12
2018-08-28T16:43:59.308Z,26.91
2018-08-28T16:47:01.702Z,27.00
2018-08-28T16:50:04.066Z,27.10
2018-08-28T16:53:06.320Z,26.81
2018-08-28T16:56:08.696Z,26.60
2018-08-28T16:59:10.933Z,26.56
2018-08-28T17:02:13.200Z,26.37
2018-08-28T17:05:15.375Z,26.34
2018-08-28T17:08:17.613Z,26.23
2018-08-28T17:11:19.882Z,25.96
2018-08-28T17:14:22.149Z,25.73
2018-08-28T17:17:24.737Z,25.61
2018-08-28T17:20:27.010Z,25.48
2018-08-28T17:23:29.293Z,25.36
2018-08-28T17:26:31.595Z,25.29
2018-08-28T17:29:33.855Z,25.16
2018-08-28T17:32:36.135Z,24.94
2018-08-28T17:35:38.279Z,24.67
2018-08-28T17:38:40.500Z,24.36
2018-08-28T17:41:42.708Z,24.04
2018-08-28T17:44:44.931Z,23.73
2018-08-28T17:47:49.711Z,23.33
2018-08-28T17:50:52.026Z,22.93
2018-08-28T17:53:54.301Z,22.46
2018-08-28T17:56:56.538Z,21.99
2018-08-28T17:59:58.810Z,21.56
2018-08-28T18:03:01.132Z,21.11
2018-08-28T18:06:03.289Z,20.67
2018-08-28T18:09:05.792Z,20.23
2018-08-28T18:12:08.338Z,19.78
2018-08-28T18:15:10.838Z,19.36
2018-08-28T18:18:13.785Z,18.95
2018-08-28T18:21:16.369Z,18.59
2018-08-28T18:24:18.740Z,18.27
2018-08-28T18:27:21.080Z,17.94
2018-08-28T18:30:23.439Z,17.68
2018-08-28T18:33:25.663Z,17.48
2018-08-28T18:36:27.935Z,17.39
2018-08-28T18:39:31.137Z,17.28
2018-08-28T18:42:33.455Z,17.13
2018-08-28T18:45:35.702Z,16.99
2018-08-28T18:48:37.924Z,16.79
2018-08-28T18:51:40.269Z,16.56
2018-08-28T18:54:42.528Z,16.37
2018-08-28T18:57:44.763Z,16.20
2018-08-28T19:00:47.033Z,16.08
2018-08-28T19:03:49.292Z,15.94
2018-08-28T19:06:51.648Z,15.90
2018-08-28T19:09:54.055Z,15.99
2018-08-28T19:12:56.297Z,15.97
2018-08-28T19:15:58.555Z,15.92
2018-08-28T19:19:00.915Z,15.87
2018-08-28T19:22:03.192Z,15.70
2018-08-28T19:25:05.577Z,15.32
2018-08-28T19:28:07.939Z,15.11
2018-08-28T19:31:10.093Z,15.01
2018-08-28T19:34:12.324Z,14.94
2018-08-28T19:37:14.528Z,14.88
2018-08-28T19:40:16.758Z,14.80
2018-08-28T19:43:19.010Z,14.78
2018-08-28T19:46:21.183Z,14.70
2018-08-28T19:49:23.333Z,14.60
2018-08-28T19:52:26.568Z,14.50
2018-08-28T19:55:28.901Z,14.30
2018-08-28T19:58:31.096Z,14.13
2018-08-28T20:01:33.263Z,14.02
2018-08-28T20:04:35.541Z,13.93
2018-08-28T20:07:37.805Z,13.97
2018-08-28T20:10:40.120Z,13.89
2018-08-28T20:13:42.303Z,13.81
2018-08-28T20:16:45.565Z,13.73
2018-08-28T20:19:48.894Z,13.73
2018-08-28T20:22:51.068Z,13.73
2018-08-28T20:25:53.259Z,13.71
2018-08-28T20:28:55.443Z,13.62
2018-08-28T20:31:57.628Z,13.45
2018-08-28T20:35:00.125Z,13.32
2018-08-28T20:38:02.343Z,13.17
2018-08-28T20:41:04.778Z,13.07
2018-08-28T20:44:07.090Z,13.04
2018-08-28T20:47:09.404Z,13.13
2018-08-28T20:50:11.643Z,13.18
2018-08-28T20:53:13.916Z,13.17
2018-08-28T20:56:16.117Z,13.02
2018-08-28T20:59:18.404Z,12.83
2018-08-28T21:02:20.564Z,12.67
2018-08-28T21:05:26.658Z,12.52
2018-08-28T21:08:28.866Z,12.42
2018-08-28T21:11:31.365Z,12.35
2018-08-28T21:14:33.640Z,12.32
2018-08-28T21:17:36.922Z,12.45
2018-08-28T21:20:39.140Z,12.50
2018-08-28T21:23:41.368Z,12.45
2018-08-28T21:26:43.567Z,12.32
2018-08-28T21:29:45.793Z,12.20
2018-08-28T21:32:48.094Z,12.13
2018-08-28T21:35:50.528Z,12.05
2018-08-28T21:38:52.626Z,12.00
2018-08-28T21:41:54.865Z,11.92
2018-08-28T21:44:57.028Z,11.87
2018-08-28T21:47:59.152Z,11.76
2018-08-28T21:51:01.366Z,11.73
2018-08-28T21:54:03.594Z,11.78
2018-08-28T21:57:05.961Z,11.89
2018-08-28T22:00:08.413Z,11.89
2018-08-28T22:03:10.693Z,11.87
2018-08-28T22:06:18.611Z,11.97
2018-08-28T22:09:20.842Z,11.96
2018-08-28T22:12:23.056Z,11.88
2018-08-28T22:15:26.328Z,11.74
2018-08-28T22:18:28.645Z,11.62
2018-08-28T22:21:30.850Z,11.47
2018-08-28T22:24:33.193Z,11.38
2018-08-28T22:27:35.543Z,11.37
2018-08-28T22:30:37.744Z,11.37
2018-08-28T22:33:39.919Z,11.35
2018-08-28T22:37:45.332Z,11.32
2018-08-28T22:40:47.551Z,11.23
2018-08-28T22:43:49.861Z,11.20
2018-08-28T22:46:52.120Z,11.18
2018-08-28T22:49:54.345Z,11.17
2018-08-28T22:52:56.506Z,11.02
2018-08-28T22:55:58.733Z,10.92
2018-08-28T22:59:00.981Z,10.86
2018-08-28T23:02:03.389Z,10.83
2018-08-28T23:05:05.744Z,10.81
2018-08-28T23:08:08.060Z,10.76
2018-08-28T23:11:10.344Z,10.70
2018-08-28T23:14:12.520Z,10.67
2018-08-28T23:17:14.718Z,10.68
2018-08-28T23:20:17.037Z,10.74
2018-08-28T23:23:19.176Z,10.78
2018-08-28T23:26:21.440Z,10.73
2018-08-28T23:29:23.647Z,10.67
2018-08-28T23:32:25.832Z,10.61
2018-08-28T23:35:28.038Z,10.55
2018-08-28T23:38:30.144Z,10.50
2018-08-28T23:41:32.405Z,10.32
2018-08-28T23:44:34.638Z,10.17
2018-08-28T23:47:36.821Z,10.14
2018-08-28T23:50:38.989Z,10.18
2018-08-28T23:53:41.163Z,10.23
2018-08-28T23:56:43.404Z,10.27
2018-08-28T23:59:45.641Z,10.30
